Terminal Aerodrome Forecast
Issued by NWS Memphis, TN

Home | Current Version | Previous Version | Text Only | Print | Product List | Glossary On
Versions: 1 2 3 4 5 6 7 8 9 10 11 12 13 14 15 16 17 18
000
FTUS44 KMEG 132300
TAFMKL
TAF
KMKL 132320Z 1400/1424 20006KT P6SM SCT100
     FM141600 23008KT P6SM VCTS BKN080CB BKN100=

USA.gov is the U.S. government's official web portal to all federal, state and local government web resources and services.